Time;durP1;ratioP1;P1;durP2;ratioP2;P2;SDS_P1;SDS_P2;PMS_P1;PMS_P2;Temp;Humidity;BMP_temperature;BMP_pressure;BME280_temperature;BME280_humidity;BME280_pressure;Samples;Min_cycle;Max_cycle;Signal;HPM_P1;HPM_P2
2022/11/08 00:03:33;;;;;;;5.72;0.85;;;;;;;;;;4799658;29;20046;-75
2022/11/08 00:14:28;;;;;;;10.23;1.33;;;;;;;;;;4799493;29;20046;-77
2022/11/08 00:16:59;;;;;;;8.07;1.77;;;;;;;;;;4799087;29;20490;-75
2022/11/08 00:19:30;;;;;;;4.97;1.10;;;;;;;;;;4799393;29;20065;-74
2022/11/08 00:22:00;;;;;;;7.05;1.00;;;;;;;;;;4799643;29;20047;-75
2022/11/08 00:24:30;;;;;;;4.63;0.75;;;;;;;;;;4798315;29;20046;-75
2022/11/08 00:27:02;;;;;;;3.13;0.90;;;;;;;;;;4798551;29;20050;-76
2022/11/08 00:29:36;;;;;;;4.50;0.98;;;;;;;;;;4798402;29;20508;-73
2022/11/08 00:32:09;;;;;;;6.07;0.98;;;;;;;;;;4802698;29;20050;-75
2022/11/08 00:34:39;;;;;;;6.93;0.98;;;;;;;;;;4802517;29;20074;-74
2022/11/08 00:37:10;;;;;;;3.45;0.80;;;;;;;;;;4802674;29;20043;-76
2022/11/08 00:39:41;;;;;;;3.33;0.70;;;;;;;;;;4802551;29;20526;-76
2022/11/08 00:42:10;;;;;;;6.55;1.08;;;;;;;;;;4802475;29;20411;-75
2022/11/08 00:44:40;;;;;;;3.35;0.80;;;;;;;;;;4802645;29;20054;-74
2022/11/08 00:47:10;;;;;;;6.72;0.77;;;;;;;;;;4803150;29;20047;-77
2022/11/08 00:49:40;;;;;;;4.65;0.80;;;;;;;;;;4802296;29;20053;-77
2022/11/08 00:52:10;;;;;;;4.20;1.00;;;;;;;;;;4801844;29;20054;-75
2022/11/08 00:54:40;;;;;;;5.15;0.70;;;;;;;;;;4802612;29;20391;-76
2022/11/08 00:57:09;;;;;;;;;;;;;;;;;;4803054;29;20054;-73
2022/11/08 00:59:39;;;;;;;6.53;1.05;;;;;;;;;;4803022;29;19921;-75
2022/11/08 01:02:08;;;;;;;3.10;0.63;;;;;;;;;;4803068;29;20065;-74
2022/11/08 01:04:38;;;;;;;3.65;1.00;;;;;;;;;;4797730;29;20051;-74
2022/11/08 01:07:08;;;;;;;8.60;1.17;;;;;;;;;;4798146;29;20063;-74
2022/11/08 01:09:37;;;;;;;;;;;;;;;;;;4785317;30;20834;-76
2022/11/08 01:12:07;;;;;;;1.95;0.47;;;;;;;;;;4783545;30;20255;-77
2022/11/08 01:14:37;;;;;;;4.97;0.63;;;;;;;;;;4784412;29;20470;-73
2022/11/08 01:17:06;;;;;;;3.67;0.88;;;;;;;;;;4796491;29;20062;-77
2022/11/08 01:19:36;;;;;;;3.90;0.90;;;;;;;;;;4782430;30;20062;-76
2022/11/08 01:22:06;;;;;;;1.77;0.55;;;;;;;;;;4782291;30;20562;-74
2022/11/08 01:24:36;;;;;;;2.95;0.95;;;;;;;;;;4782722;30;20409;-74
2022/11/08 01:27:06;;;;;;;8.15;0.95;;;;;;;;;;4782166;30;20056;-75
2022/11/08 01:29:35;;;;;;;3.13;0.70;;;;;;;;;;4782204;30;20066;-74
2022/11/08 01:32:06;;;;;;;8.30;1.25;;;;;;;;;;4796016;29;20058;-75
2022/11/08 01:34:35;;;;;;;;;;;;;;;;;;4784530;30;20048;-74
2022/11/08 01:37:05;;;;;;;4.95;0.70;;;;;;;;;;4784507;30;19928;-74
2022/11/08 01:39:34;;;;;;;;;;;;;;;;;;4784723;30;20407;-74
2022/11/08 01:42:04;;;;;;;4.00;1.02;;;;;;;;;;4782773;29;19932;-73
2022/11/08 01:44:54;;;;;;;11.23;1.33;;;;;;;;;;4784171;30;20419;-75
2022/11/08 01:47:24;;;;;;;6.93;1.10;;;;;;;;;;4783965;30;20586;-73
2022/11/08 01:49:57;;;;;;;;;;;;;;;;;;4784247;30;20047;-75
2022/11/08 01:52:32;;;;;;;5.38;0.80;;;;;;;;;;4783844;29;19922;-73
2022/11/08 01:55:12;;;;;;;7.20;1.13;;;;;;;;;;4784203;30;20400;-76
2022/11/08 01:57:51;;;;;;;7.13;0.90;;;;;;;;;;4784055;30;20058;-74
2022/11/08 02:00:21;;;;;;;2.25;0.88;;;;;;;;;;4784488;30;20055;-76
2022/11/08 02:02:59;;;;;;;5.25;0.70;;;;;;;;;;4783876;30;20044;-75
2022/11/08 02:05:30;;;;;;;5.88;0.88;;;;;;;;;;4783754;30;20047;-75
2022/11/08 02:08:26;;;;;;;2.38;0.90;;;;;;;;;;4783514;30;20047;-74
2022/11/08 02:10:57;;;;;;;3.95;0.77;;;;;;;;;;4785074;29;20066;-74
2022/11/08 02:13:30;;;;;;;5.40;0.80;;;;;;;;;;4783500;30;20503;-74
2022/11/08 02:16:00;;;;;;;2.67;0.80;;;;;;;;;;4783874;30;20051;-73
2022/11/08 02:18:31;;;;;;;5.65;1.00;;;;;;;;;;4784006;30;20047;-73
2022/11/08 02:21:23;;;;;;;4.22;0.68;;;;;;;;;;4783689;30;20369;-74
2022/11/08 02:24:03;;;;;;;5.22;0.85;;;;;;;;;;4784226;30;20051;-75
2022/11/08 02:26:34;;;;;;;2.65;0.55;;;;;;;;;;4796572;29;20055;-76
2022/11/08 02:29:22;;;;;;;5.13;0.88;;;;;;;;;;4783599;30;20047;-74
2022/11/08 02:31:53;;;;;;;2.40;0.70;;;;;;;;;;4796848;29;20065;-76
2022/11/08 02:34:36;;;;;;;7.93;1.15;;;;;;;;;;4783440;30;20051;-77
2022/11/08 02:37:07;;;;;;;3.28;0.70;;;;;;;;;;4783188;30;20047;-74
2022/11/08 02:39:37;;;;;;;2.65;0.68;;;;;;;;;;4783463;30;20415;-75
2022/11/08 02:42:11;;;;;;;5.07;0.93;;;;;;;;;;4783030;30;20059;-75
2022/11/08 02:44:41;;;;;;;4.88;1.13;;;;;;;;;;4783232;30;20063;-74
2022/11/08 02:47:11;;;;;;;;;;;;;;;;;;4783711;30;20055;-76
2022/11/08 02:49:40;;;;;;;5.80;1.00;;;;;;;;;;4783533;30;20396;-76
2022/11/08 02:52:10;;;;;;;;;;;;;;;;;;4781971;30;20070;-73
2022/11/08 02:54:39;;;;;;;4.32;1.08;;;;;;;;;;4782623;29;19932;-74
2022/11/08 02:57:09;;;;;;;;;;;;;;;;;;4783147;30;20048;-74
2022/11/08 02:59:38;;;;;;;3.03;0.75;;;;;;;;;;4782456;30;19932;-74
2022/11/08 03:02:08;;;;;;;3.58;0.98;;;;;;;;;;4782469;30;20055;-73
2022/11/08 03:04:38;;;;;;;4.10;1.17;;;;;;;;;;4782702;30;20059;-76
2022/11/08 03:07:08;;;;;;;10.10;1.05;;;;;;;;;;4782508;30;20491;-73
2022/11/08 03:09:38;;;;;;;5.13;0.80;;;;;;;;;;4782785;30;20047;-76
2022/11/08 03:12:07;;;;;;;;;;;;;;;;;;4783473;30;20058;-75
2022/11/08 03:14:36;;;;;;;3.80;0.93;;;;;;;;;;4782678;30;20262;-75
2022/11/08 03:17:06;;;;;;;;;;;;;;;;;;4782675;30;20066;-73
2022/11/08 03:19:35;;;;;;;13.55;0.70;;;;;;;;;;4782705;30;20292;-74
2022/11/08 03:22:05;;;;;;;5.22;0.82;;;;;;;;;;4782393;30;20566;-76
2022/11/08 03:24:34;;;;;;;;;;;;;;;;;;4783461;30;20411;-76
2022/11/08 03:27:04;;;;;;;7.43;0.95;;;;;;;;;;4796273;29;19925;-74
2022/11/08 03:29:34;;;;;;;3.33;0.90;;;;;;;;;;4782236;30;20055;-74
2022/11/08 03:32:04;;;;;;;11.93;1.48;;;;;;;;;;4782497;30;20055;-75
2022/11/08 03:34:34;;;;;;;6.38;0.95;;;;;;;;;;4782494;30;20082;-73
2022/11/08 03:37:09;;;;;;;7.97;1.20;;;;;;;;;;4796620;29;20058;-74
2022/11/08 03:39:39;;;;;;;1.95;0.60;;;;;;;;;;4782249;30;20051;-75
2022/11/08 03:42:08;;;;;;;;;;;;;;;;;;4782926;30;20514;-75
2022/11/08 03:44:38;;;;;;;3.65;0.82;;;;;;;;;;4781805;30;19936;-73
2022/11/08 03:47:08;;;;;;;;;;;;;;;;;;4796130;29;20063;-75
2022/11/08 03:49:37;;;;;;;5.93;1.05;;;;;;;;;;4782269;30;19934;-76
2022/11/08 03:52:07;;;;;;;;;;;;;;;;;;4782377;30;20055;-74
2022/11/08 03:54:36;;;;;;;5.78;0.90;;;;;;;;;;4796067;29;19921;-74
2022/11/08 03:57:05;;;;;;;;;;;;;;;;;;4782603;30;20047;-74
2022/11/08 03:59:35;;;;;;;1.13;0.73;;;;;;;;;;4781438;30;20382;-75
2022/11/08 04:02:05;;;;;;;3.55;0.70;;;;;;;;;;4781806;30;20555;-73
2022/11/08 04:04:35;;;;;;;4.70;1.20;;;;;;;;;;4781413;29;20047;-73
2022/11/08 04:07:05;;;;;;;1.95;1.08;;;;;;;;;;4781875;30;20058;-73
2022/11/08 04:09:34;;;;;;;;;;;;;;;;;;4795918;29;20074;-74
2022/11/08 04:23:21;;;;;;;2.17;1.35;;;;;;;;;;4781471;30;20506;-74
2022/11/08 04:25:54;;;;;;;;;;;;;;;;;;4782574;30;20491;-74
2022/11/08 04:28:29;;;;;;;6.20;0.90;;;;;;;;;;4781820;30;19928;-73
2022/11/08 04:31:04;;;;;;;1.95;0.85;;;;;;;;;;4781675;30;20051;-74
2022/11/08 04:33:34;;;;;;;2.05;0.90;;;;;;;;;;4781638;30;20043;-76
2022/11/08 04:36:08;;;;;;;9.38;1.17;;;;;;;;;;4781458;30;20051;-72
2022/11/08 04:38:38;;;;;;;3.22;0.80;;;;;;;;;;4781891;30;20127;-73
2022/11/08 04:41:12;;;;;;;5.85;0.88;;;;;;;;;;4781475;30;20043;-75
2022/11/08 04:43:42;;;;;;;6.15;1.00;;;;;;;;;;4795726;29;20047;-73
2022/11/08 04:46:18;;;;;;;4.18;1.05;;;;;;;;;;4781215;30;20105;-74
2022/11/08 04:48:50;;;;;;;2.03;0.77;;;;;;;;;;4782110;30;20044;-75
2022/11/08 04:51:26;;;;;;;9.57;1.15;;;;;;;;;;4781794;30;20047;-73
2022/11/08 04:53:57;;;;;;;3.35;1.02;;;;;;;;;;4781507;30;20093;-75
2022/11/08 04:56:29;;;;;;;6.18;0.88;;;;;;;;;;4781568;30;20043;-74
2022/11/08 04:59:00;;;;;;;4.80;0.70;;;;;;;;;;4781621;30;20056;-76
2022/11/08 05:01:30;;;;;;;5.18;0.95;;;;;;;;;;4781652;30;20499;-75
2022/11/08 05:04:00;;;;;;;1.83;0.80;;;;;;;;;;4781655;30;20052;-76
2022/11/08 05:06:31;;;;;;;1.15;0.60;;;;;;;;;;4781489;29;20058;-73
2022/11/08 05:09:01;;;;;;;4.55;0.75;;;;;;;;;;4781614;30;20052;-75
2022/11/08 05:11:31;;;;;;;5.18;0.98;;;;;;;;;;4781213;30;20054;-75
2022/11/08 05:14:01;;;;;;;3.28;0.90;;;;;;;;;;4795177;29;20059;-74
2022/11/08 05:16:31;;;;;;;;;;;;;;;;;;4783125;29;20047;-75
2022/11/08 05:19:01;;;;;;;3.88;0.95;;;;;;;;;;4784606;30;19925;-74
2022/11/08 05:24:22;;;;;;;3.90;0.88;;;;;;;;;;4784463;30;20043;-76
2022/11/08 05:26:52;;;;;;;;;;;;;;;;;;4784952;30;20518;-75
2022/11/08 05:29:21;;;;;;;4.30;0.77;;;;;;;;;;4783987;30;20296;-75
2022/11/08 05:31:51;;;;;;;7.13;1.00;;;;;;;;;;4784244;30;20058;-73
2022/11/08 05:34:20;;;;;;;;;;;;;;;;;;4784678;30;20422;-72
2022/11/08 05:36:50;;;;;;;3.97;1.00;;;;;;;;;;4784096;30;19925;-76
2022/11/08 05:39:19;;;;;;;;;;;;;;;;;;4784620;30;20051;-73
2022/11/08 05:41:49;;;;;;;2.40;0.80;;;;;;;;;;4784017;30;19926;-72
2022/11/08 05:44:19;;;;;;;6.18;0.90;;;;;;;;;;4783941;30;20051;-73
2022/11/08 05:46:48;;;;;;;;;;;;;;;;;;4784680;30;20062;-75
2022/11/08 05:49:17;;;;;;;2.03;0.98;;;;;;;;;;4783942;30;19932;-74
2022/11/08 05:51:47;;;;;;;3.17;1.20;;;;;;;;;;4783784;30;20491;-76
2022/11/08 05:54:17;;;;;;;;;;;;;;;;;;4784282;30;20058;-75
2022/11/08 05:56:46;;;;;;;3.20;1.02;;;;;;;;;;4797550;29;19925;-74
2022/11/08 05:59:16;;;;;;;;;;;;;;;;;;4784502;30;20062;-73
2022/11/08 06:01:45;;;;;;;3.45;1.00;;;;;;;;;;4783733;30;20369;-75
2022/11/08 06:04:14;;;;;;;;;;;;;;;;;;4784515;30;20047;-73
2022/11/08 06:06:44;;;;;;;2.90;1.02;;;;;;;;;;4783443;30;19933;-73
2022/11/08 06:09:14;;;;;;;3.58;1.70;;;;;;;;;;4782983;29;20059;-75
2022/11/08 06:11:44;;;;;;;5.95;1.10;;;;;;;;;;4783991;30;20047;-74
2022/11/08 06:14:14;;;;;;;4.10;1.10;;;;;;;;;;4797157;29;20051;-75
2022/11/08 06:16:44;;;;;;;;;;;;;;;;;;4783775;30;20055;-73
2022/11/08 06:19:13;;;;;;;2.65;1.00;;;;;;;;;;4783703;30;19926;-75
2022/11/08 06:21:42;;;;;;;;;;;;;;;;;;4784134;30;20408;-75
2022/11/08 06:24:16;;;;;;;8.13;1.08;;;;;;;;;;4797538;29;19933;-73
2022/11/08 06:26:46;;;;;;;3.20;1.00;;;;;;;;;;4783151;30;20535;-73
2022/11/08 06:29:16;;;;;;;3.30;0.73;;;;;;;;;;4783794;29;20059;-75
2022/11/08 06:31:46;;;;;;;2.45;0.90;;;;;;;;;;4783333;30;20054;-74
2022/11/08 06:34:15;;;;;;;2.13;1.00;;;;;;;;;;4783066;30;20051;-74
2022/11/08 06:36:45;;;;;;;;;;;;;;;;;;4784148;30;20047;-71
2022/11/08 06:39:14;;;;;;;4.03;1.25;;;;;;;;;;4783195;30;20373;-74
2022/11/08 06:41:43;;;;;;;;;;;;;;;;;;4783484;30;20522;-73
2022/11/08 06:44:13;;;;;;;3.53;1.05;;;;;;;;;;4782774;30;19936;-73
2022/11/08 06:46:43;;;;;;;1.73;1.05;;;;;;;;;;4783362;30;20051;-74
2022/11/08 06:49:13;;;;;;;5.05;1.20;;;;;;;;;;4783042;30;20051;-73
2022/11/08 06:51:42;;;;;;;4.00;0.93;;;;;;;;;;4783034;30;20413;-75
2022/11/08 06:54:12;;;;;;;;;;;;;;;;;;4783536;30;20055;-75
2022/11/08 06:56:46;;;;;;;2.65;1.40;;;;;;;;;;4782656;30;20408;-74
2022/11/08 06:59:16;;;;;;;4.65;1.23;;;;;;;;;;4796574;29;20067;-72
2022/11/08 07:01:45;;;;;;;;;;;;;;;;;;4783341;30;20054;-73
2022/11/08 07:04:15;;;;;;;6.07;1.45;;;;;;;;;;4796089;29;20377;-75
2022/11/08 07:06:44;;;;;;;;;;;;;;;;;;4783742;30;20058;-73
2022/11/08 07:09:14;;;;;;;8.38;1.40;;;;;;;;;;4782664;30;19926;-73
2022/11/08 07:11:45;;;;;;;2.78;0.85;;;;;;;;;;4782726;30;20054;-76
2022/11/08 07:14:14;;;;;;;;;;;;;;;;;;4783356;30;20067;-75
2022/11/08 07:16:44;;;;;;;4.00;0.90;;;;;;;;;;4783140;30;19925;-73
2022/11/08 07:19:13;;;;;;;;;;;;;;;;;;4784129;29;20051;-74
2022/11/08 07:21:44;;;;;;;6.07;1.25;;;;;;;;;;4782214;30;19921;-73
2022/11/08 07:24:13;;;;;;;;;;;;;;;;;;4783243;30;20051;-73
2022/11/08 07:26:42;;;;;;;2.00;1.02;;;;;;;;;;4782133;30;19936;-72
2022/11/08 07:29:12;;;;;;;7.38;1.20;;;;;;;;;;4782401;30;20499;-73
2022/11/08 07:31:44;;;;;;;3.67;1.10;;;;;;;;;;4782280;30;20054;-73
2022/11/08 07:34:14;;;;;;;4.35;0.80;;;;;;;;;;4782456;30;20059;-75
2022/11/08 07:36:45;;;;;;;3.88;0.77;;;;;;;;;;4782343;30;20399;-74
2022/11/08 07:39:15;;;;;;;1.17;1.08;;;;;;;;;;4782487;29;20039;-75
2022/11/08 07:41:44;;;;;;;4.18;1.17;;;;;;;;;;4782738;30;20047;-74
2022/11/08 07:44:14;;;;;;;;;;;;;;;;;;4781652;30;20377;-74
2022/11/08 07:46:43;;;;;;;4.05;0.90;;;;;;;;;;4782098;30;19932;-74
2022/11/08 07:49:13;;;;;;;;;;;;;;;;;;4782603;30;20039;-74
2022/11/08 07:51:42;;;;;;;13.00;0.98;;;;;;;;;;4782614;30;20377;-74
2022/11/08 07:54:12;;;;;;;;;;;;;;;;;;4782632;30;20401;-73
2022/11/08 07:56:42;;;;;;;8.20;0.70;;;;;;;;;;4781815;30;20295;-72
2022/11/08 07:59:12;;;;;;;5.85;0.80;;;;;;;;;;4781709;30;20062;-71
2022/11/08 08:01:42;;;;;;;17.88;1.35;;;;;;;;;;4795788;29;20059;-74
2022/11/08 08:04:12;;;;;;;;;;;;;;;;;;4782914;30;20051;-75
2022/11/08 08:06:42;;;;;;;9.07;0.80;;;;;;;;;;4782163;30;19922;-75
2022/11/08 08:09:11;;;;;;;24.33;1.05;;;;;;;;;;4781749;30;20050;-74
2022/11/08 08:11:41;;;;;;;47.00;1.80;;;;;;;;;;4781672;30;20419;-73
2022/11/08 08:14:11;;;;;;;10.57;0.68;;;;;;;;;;4781669;30;20051;-73
2022/11/08 08:16:40;;;;;;;;;;;;;;;;;;4782088;30;20058;-73
2022/11/08 08:19:10;;;;;;;5.22;0.73;;;;;;;;;;4781659;30;19933;-73
2022/11/08 08:21:39;;;;;;;;;;;;;;;;;;4782297;30;20047;-74
2022/11/08 08:24:09;;;;;;;26.35;1.55;;;;;;;;;;4782327;30;19929;-74
2022/11/08 08:26:39;;;;;;;40.08;1.98;;;;;;;;;;4781668;30;20047;-74
2022/11/08 08:29:08;;;;;;;26.27;1.15;;;;;;;;;;4782261;30;20059;-74
2022/11/08 08:31:38;;;;;;;;;;;;;;;;;;4782162;30;20051;-74
2022/11/08 08:34:07;;;;;;;15.18;0.93;;;;;;;;;;4781755;30;19925;-74
2022/11/08 08:36:39;;;;;;;;;;;;;;;;;;4782534;30;20043;-74
2022/11/08 08:39:09;;;;;;;32.67;1.17;;;;;;;;;;4781947;30;19953;-74
2022/11/08 08:41:38;;;;;;;;;;;;;;;;;;4781613;30;20499;-74
2022/11/08 08:44:09;;;;;;;13.85;0.90;;;;;;;;;;4781592;30;19925;-74
2022/11/08 08:46:39;;;;;;;12.73;0.75;;;;;;;;;;4794736;29;20055;-74
2022/11/08 08:49:08;;;;;;;20.20;1.40;;;;;;;;;;4781650;30;20052;-74
2022/11/08 08:51:38;;;;;;;21.08;1.70;;;;;;;;;;4782671;29;20051;-74
2022/11/08 08:54:08;;;;;;;;;;;;;;;;;;4785906;30;20051;-73
2022/11/08 08:56:38;;;;;;;11.18;1.15;;;;;;;;;;4785254;30;19933;-75
2022/11/08 08:59:07;;;;;;;;;;;;;;;;;;4785560;30;20055;-74
2022/11/08 09:01:58;;;;;;;2.70;1.83;;;;;;;;;;4784858;30;19925;-75
2022/11/08 09:04:28;;;;;;;4.30;1.70;;;;;;;;;;4785307;30;20048;-73
2022/11/08 09:06:58;;;;;;;6.45;2.25;;;;;;;;;;4784828;30;20491;-74
2022/11/08 09:09:28;;;;;;;4.65;2.00;;;;;;;;;;4784791;30;20074;-72
2022/11/08 09:11:57;;;;;;;;;;;;;;;;;;4798208;29;20047;-74
2022/11/08 09:14:27;;;;;;;5.93;2.20;;;;;;;;;;4784595;30;19929;-74
2022/11/08 09:16:58;;;;;;;6.20;2.20;;;;;;;;;;4784747;30;20047;-74
2022/11/08 09:19:28;;;;;;;4.57;2.15;;;;;;;;;;4784769;30;20415;-73
2022/11/08 09:21:57;;;;;;;;;;;;;;;;;;4784361;29;20051;-75
2022/11/08 09:24:27;;;;;;;6.40;2.28;;;;;;;;;;4784509;30;20357;-75
2022/11/08 09:27:02;;;;;;;3.75;1.90;;;;;;;;;;4784236;30;20060;-75
2022/11/08 09:29:33;;;;;;;1.90;1.40;;;;;;;;;;4784609;30;20074;-73
2022/11/08 09:32:03;;;;;;;4.13;1.90;;;;;;;;;;4784323;30;20051;-74
2022/11/08 09:34:32;;;;;;;9.77;2.80;;;;;;;;;;4784655;30;20055;-74
2022/11/08 09:37:02;;;;;;;;;;;;;;;;;;4784659;30;20059;-73
2022/11/08 09:39:31;;;;;;;5.65;1.63;;;;;;;;;;4784167;30;19925;-73
2022/11/08 09:42:10;;;;;;;9.30;2.58;;;;;;;;;;4784519;30;20523;-75
2022/11/08 09:45:10;;;;;;;4.28;2.10;;;;;;;;;;4784530;30;20464;-73
2022/11/08 09:47:43;;;;;;;3.25;2.20;;;;;;;;;;4784203;30;20047;-74
2022/11/08 09:50:33;;;;;;;10.77;2.28;;;;;;;;;;4784564;30;20056;-74
2022/11/08 09:53:38;;;;;;;12.48;5.43;;;;;;;;;;4783831;30;20165;-73
2022/11/08 09:56:23;;;;;;;5.80;2.75;;;;;;;;;;4797606;29;20054;-74
2022/11/08 09:59:01;;;;;;;4.13;2.20;;;;;;;;;;4797469;29;20063;-74
2022/11/08 10:01:33;;;;;;;5.70;2.08;;;;;;;;;;4784035;30;20066;-74
2022/11/08 10:04:24;;;;;;;7.43;1.90;;;;;;;;;;4782556;29;20063;-74
2022/11/08 10:07:21;;;;;;;2.53;1.17;;;;;;;;;;4783757;30;20047;-74
2022/11/08 10:10:07;;;;;;;4.93;1.90;;;;;;;;;;4784019;30;20050;-75
2022/11/08 10:12:52;;;;;;;3.55;2.28;;;;;;;;;;4783743;30;20043;-73
2022/11/08 10:15:40;;;;;;;3.50;1.25;;;;;;;;;;4784311;30;20059;-76
2022/11/08 10:18:22;;;;;;;6.57;1.95;;;;;;;;;;4783714;30;20523;-75
2022/11/08 10:21:10;;;;;;;;;;;;;;;;;;4783503;30;20054;-75
2022/11/08 10:23:42;;;;;;;3.67;1.20;;;;;;;;;;4783947;30;19921;-74
2022/11/08 10:26:14;;;;;;;2.03;1.17;;;;;;;;;;4797758;29;20058;-74
2022/11/08 10:29:14;;;;;;;3.85;1.50;;;;;;;;;;4797934;29;20635;-74
2022/11/08 10:31:48;;;;;;;6.97;1.40;;;;;;;;;;4784534;29;20087;-74
2022/11/08 10:34:24;;;;;;;4.57;1.80;;;;;;;;;;4783039;30;20055;-72
2022/11/08 10:37:02;;;;;;;11.05;1.77;;;;;;;;;;4785298;29;20589;-75
2022/11/08 10:39:40;;;;;;;13.57;3.50;;;;;;;;;;4801101;29;20074;-74
2022/11/08 10:42:34;;;;;;;15.18;3.47;;;;;;;;;;4801186;29;20049;-78
2022/11/08 10:45:04;;;;;;;11.77;3.70;;;;;;;;;;4799685;29;20066;-73
2022/11/08 10:47:36;;;;;;;13.43;4.95;;;;;;;;;;4800837;29;20043;-75
2022/11/08 10:50:13;;;;;;;13.98;4.05;;;;;;;;;;4801144;29;20525;-74
2022/11/08 10:52:54;;;;;;;14.88;5.63;;;;;;;;;;4801232;29;20055;-75
2022/11/08 10:55:37;;;;;;;10.90;5.13;;;;;;;;;;4801088;29;20066;-74
2022/11/08 10:58:32;;;;;;;15.65;4.57;;;;;;;;;;4800681;29;20039;-75
2022/11/08 11:01:24;;;;;;;10.32;4.95;;;;;;;;;;4800711;29;20051;-74
2022/11/08 11:03:54;;;;;;;12.45;3.75;;;;;;;;;;4800661;29;20054;-74
2022/11/08 11:06:31;;;;;;;11.80;4.20;;;;;;;;;;4800678;29;20071;-74
2022/11/08 11:09:17;;;;;;;10.45;4.72;;;;;;;;;;4800607;29;20047;-75
2022/11/08 11:11:59;;;;;;;16.00;5.93;;;;;;;;;;4801128;29;20043;-73
2022/11/08 11:14:29;;;;;;;12.35;4.30;;;;;;;;;;4800394;29;20042;-74
2022/11/08 11:17:15;;;;;;;13.70;5.18;;;;;;;;;;4799659;29;20082;-75
2022/11/08 11:19:55;;;;;;;12.05;4.70;;;;;;;;;;4800996;29;20499;-74
2022/11/08 11:22:32;;;;;;;7.07;3.92;;;;;;;;;;4800743;29;20062;-74
2022/11/08 11:25:15;;;;;;;11.02;4.20;;;;;;;;;;4800282;29;20055;-74
2022/11/08 11:27:53;;;;;;;9.60;3.97;;;;;;;;;;4800473;29;20055;-75
2022/11/08 11:30:29;;;;;;;12.40;4.68;;;;;;;;;;4800293;29;20046;-75
2022/11/08 11:33:02;;;;;;;7.63;4.10;;;;;;;;;;4800697;29;20057;-78
2022/11/08 11:35:44;;;;;;;14.27;4.70;;;;;;;;;;4799233;29;20058;-73
2022/11/08 11:38:46;;;;;;;9.98;5.22;;;;;;;;;;4799398;29;20050;-75
2022/11/08 11:41:29;;;;;;;12.25;4.28;;;;;;;;;;4798701;29;20552;-74
2022/11/08 11:44:16;;;;;;;7.47;3.90;;;;;;;;;;4800267;29;20059;-74
2022/11/08 11:47:01;;;;;;;11.30;4.13;;;;;;;;;;4798539;29;20055;-74
2022/11/08 11:49:31;;;;;;;12.23;5.78;;;;;;;;;;4800220;29;20054;-75
2022/11/08 11:52:01;;;;;;;12.05;5.65;;;;;;;;;;4799950;29;20055;-74
2022/11/08 11:54:32;;;;;;;12.15;5.90;;;;;;;;;;4800387;29;20047;-74
2022/11/08 11:57:34;;;;;;;10.73;4.53;;;;;;;;;;4800499;29;20047;-75
2022/11/08 12:00:13;;;;;;;11.23;4.00;;;;;;;;;;4799724;29;20049;-76
2022/11/08 12:03:20;;;;;;;5.78;3.35;;;;;;;;;;4799809;29;20047;-75
2022/11/08 12:05:58;;;;;;;4.97;2.38;;;;;;;;;;4800445;29;20057;-78
2022/11/08 12:08:44;;;;;;;8.55;2.97;;;;;;;;;;4799886;29;20047;-77
2022/11/08 12:11:28;;;;;;;6.93;2.58;;;;;;;;;;4799675;29;20050;-76
2022/11/08 12:14:11;;;;;;;6.00;2.60;;;;;;;;;;4799613;29;20526;-75
2022/11/08 12:16:47;;;;;;;6.72;3.30;;;;;;;;;;4798411;29;20515;-76
2022/11/08 12:19:57;;;;;;;5.50;2.60;;;;;;;;;;4799982;29;20054;-76
2022/11/08 12:22:38;;;;;;;9.18;3.50;;;;;;;;;;4798715;29;20526;-74
2022/11/08 12:25:29;;;;;;;7.00;3.05;;;;;;;;;;4799918;29;20054;-75
2022/11/08 12:28:27;;;;;;;6.38;2.60;;;;;;;;;;4799388;29;20505;-75
2022/11/08 12:31:23;;;;;;;6.05;2.35;;;;;;;;;;4799250;29;20074;-75
2022/11/08 12:34:18;;;;;;;4.93;2.15;;;;;;;;;;4799320;29;20514;-74
2022/11/08 12:37:01;;;;;;;3.20;2.00;;;;;;;;;;4798477;29;20067;-75
2022/11/08 12:39:37;;;;;;;5.38;1.60;;;;;;;;;;4799699;29;20509;-76
2022/11/08 12:42:25;;;;;;;5.40;1.48;;;;;;;;;;4799561;29;20062;-75
2022/11/08 12:45:19;;;;;;;5.43;1.98;;;;;;;;;;4799818;29;20055;-74
2022/11/08 12:48:18;;;;;;;3.78;1.70;;;;;;;;;;4799570;29;20046;-74
2022/11/08 12:51:20;;;;;;;6.70;1.88;;;;;;;;;;4799192;29;20061;-75
2022/11/08 12:54:12;;;;;;;6.10;2.13;;;;;;;;;;4799346;29;20517;-79
2022/11/08 12:56:48;;;;;;;5.47;2.90;;;;;;;;;;4799525;29;20050;-76
2022/11/08 12:59:41;;;;;;;4.45;1.88;;;;;;;;;;4799064;29;20047;-75
2022/11/08 13:02:42;;;;;;;5.25;2.25;;;;;;;;;;4799572;29;20063;-78
2022/11/08 13:05:19;;;;;;;3.42;1.42;;;;;;;;;;4799046;29;20063;-77
2022/11/08 13:08:00;;;;;;;4.63;1.13;;;;;;;;;;4799955;29;20047;-76
2022/11/08 13:10:54;;;;;;;2.97;1.02;;;;;;;;;;4798959;29;20058;-76
2022/11/08 13:13:38;;;;;;;3.13;0.88;;;;;;;;;;4799522;29;20046;-75
2022/11/08 13:16:20;;;;;;;4.40;1.38;;;;;;;;;;4799771;29;20046;-74
2022/11/08 13:18:52;;;;;;;2.20;0.80;;;;;;;;;;4799641;29;20042;-77
2022/11/08 13:21:33;;;;;;;1.45;0.43;;;;;;;;;;4799183;29;20058;-74
2022/11/08 13:24:05;;;;;;;3.53;1.00;;;;;;;;;;4799250;29;20499;-74
2022/11/08 13:27:30;;;;;;;1.77;0.65;;;;;;;;;;4799066;29;20630;-74
2022/11/08 13:30:23;;;;;;;4.75;0.90;;;;;;;;;;4799216;29;20050;-76
2022/11/08 13:33:15;;;;;;;3.50;1.00;;;;;;;;;;4798905;29;20043;-76
2022/11/08 13:35:59;;;;;;;3.22;0.65;;;;;;;;;;4799401;29;20384;-75
2022/11/08 13:38:56;;;;;;;4.10;1.00;;;;;;;;;;4801398;29;20056;-75
2022/11/08 13:41:26;;;;;;;2.03;0.82;;;;;;;;;;4802607;29;20533;-73
2022/11/08 13:43:58;;;;;;;1.88;0.60;;;;;;;;;;4802056;29;20055;-74
2022/11/08 13:46:30;;;;;;;3.13;0.98;;;;;;;;;;4801928;29;20039;-77
2022/11/08 13:49:13;;;;;;;2.67;0.98;;;;;;;;;;4802516;29;20043;-77
2022/11/08 13:51:43;;;;;;;2.35;0.57;;;;;;;;;;4802351;29;20499;-76
2022/11/08 13:54:21;;;;;;;1.25;0.43;;;;;;;;;;4802185;29;20059;-76
2022/11/08 13:56:56;;;;;;;1.92;0.75;;;;;;;;;;4802560;29;20054;-77
2022/11/08 13:59:30;;;;;;;2.55;0.90;;;;;;;;;;4802089;29;20050;-75
2022/11/08 14:02:28;;;;;;;2.05;0.70;;;;;;;;;;4801482;29;20047;-73
2022/11/08 14:05:28;;;;;;;2.53;0.50;;;;;;;;;;4802076;29;20581;-74
2022/11/08 14:08:13;;;;;;;5.78;0.70;;;;;;;;;;4797832;29;20059;-74
2022/11/08 14:11:22;;;;;;;1.77;0.40;;;;;;;;;;4801959;29;20046;-75
2022/11/08 14:14:37;;;;;;;3.08;0.63;;;;;;;;;;4801672;29;20050;-74
2022/11/08 14:17:19;;;;;;;3.28;0.57;;;;;;;;;;4800984;29;20087;-74
2022/11/08 14:19:51;;;;;;;3.05;0.60;;;;;;;;;;4801515;29;20045;-77
2022/11/08 14:22:23;;;;;;;1.00;0.20;;;;;;;;;;4801470;29;20047;-76
2022/11/08 14:25:07;;;;;;;1.98;0.40;;;;;;;;;;4801513;29;20063;-75
2022/11/08 14:27:40;;;;;;;1.30;0.43;;;;;;;;;;4801242;29;20046;-76
2022/11/08 14:30:19;;;;;;;1.38;0.40;;;;;;;;;;4801967;29;20042;-75
2022/11/08 14:33:06;;;;;;;3.80;0.90;;;;;;;;;;4801852;29;20055;-77
2022/11/08 14:35:36;;;;;;;4.78;0.70;;;;;;;;;;4801768;29;20046;-75
2022/11/08 14:38:14;;;;;;;3.92;1.00;;;;;;;;;;4801158;29;20050;-75
2022/11/08 14:40:56;;;;;;;5.43;1.00;;;;;;;;;;4801541;29;20039;-76
2022/11/08 14:43:28;;;;;;;9.43;1.20;;;;;;;;;;4801263;29;20051;-72
2022/11/08 14:46:09;;;;;;;5.50;1.10;;;;;;;;;;4799602;29;20061;-77
2022/11/08 14:48:49;;;;;;;3.78;0.93;;;;;;;;;;4800717;29;20046;-76
2022/11/08 14:51:20;;;;;;;3.47;0.80;;;;;;;;;;4800818;29;20077;-76
2022/11/08 14:53:53;;;;;;;4.82;0.90;;;;;;;;;;4800823;29;20058;-76
2022/11/08 14:56:28;;;;;;;3.35;1.10;;;;;;;;;;4801632;29;20050;-76
2022/11/08 14:59:05;;;;;;;3.45;0.80;;;;;;;;;;4801331;29;20055;-75
2022/11/08 15:01:35;;;;;;;2.60;0.70;;;;;;;;;;4799624;29;20050;-77
2022/11/08 15:04:26;;;;;;;2.72;0.70;;;;;;;;;;4800555;29;20053;-74
2022/11/08 15:06:58;;;;;;;2.10;0.60;;;;;;;;;;4800922;29;20050;-76
2022/11/08 15:09:31;;;;;;;3.90;0.73;;;;;;;;;;4801003;29;20054;-76
2022/11/08 15:12:05;;;;;;;3.50;0.70;;;;;;;;;;4800667;29;20050;-76
2022/11/08 15:14:43;;;;;;;6.15;0.70;;;;;;;;;;4800733;29;20414;-76
2022/11/08 15:17:36;;;;;;;2.38;0.68;;;;;;;;;;4800475;29;20507;-77
2022/11/08 15:20:11;;;;;;;0.90;0.40;;;;;;;;;;4800841;29;20489;-75
2022/11/08 15:22:44;;;;;;;1.20;0.43;;;;;;;;;;4800777;29;20487;-76
2022/11/08 15:25:43;;;;;;;2.08;0.93;;;;;;;;;;4800095;29;20047;-74
2022/11/08 15:28:26;;;;;;;3.70;0.80;;;;;;;;;;4799695;29;20066;-75
2022/11/08 15:31:00;;;;;;;5.63;1.20;;;;;;;;;;4798987;29;20857;-76
2022/11/08 15:33:37;;;;;;;1.40;0.60;;;;;;;;;;4799760;29;20049;-78
2022/11/08 15:36:14;;;;;;;1.55;0.40;;;;;;;;;;4801119;29;20053;-76
2022/11/08 15:38:49;;;;;;;1.92;0.57;;;;;;;;;;4798209;29;20065;-72
2022/11/08 15:41:24;;;;;;;2.45;0.50;;;;;;;;;;4800041;29;20058;-74
2022/11/08 15:44:13;;;;;;;2.28;0.60;;;;;;;;;;4800085;29;20054;-74
2022/11/08 15:46:44;;;;;;;1.08;0.50;;;;;;;;;;4799879;29;20058;-76
2022/11/08 15:49:20;;;;;;;2.85;0.63;;;;;;;;;;4800458;29;20055;-74
2022/11/08 15:51:52;;;;;;;1.95;0.70;;;;;;;;;;4799892;29;20053;-75
2022/11/08 15:54:24;;;;;;;2.88;0.65;;;;;;;;;;4800289;29;20057;-74
2022/11/08 15:56:55;;;;;;;2.50;0.80;;;;;;;;;;4800237;29;20061;-74
2022/11/08 15:59:29;;;;;;;1.08;0.50;;;;;;;;;;4800088;29;20054;-74
2022/11/08 16:02:01;;;;;;;1.45;0.32;;;;;;;;;;4797566;29;20058;-74
2022/11/08 16:04:31;;;;;;;1.83;0.50;;;;;;;;;;4799631;29;20062;-77
2022/11/08 16:07:01;;;;;;;2.03;0.70;;;;;;;;;;4799572;29;20074;-72
2022/11/08 16:09:31;;;;;;;1.55;0.50;;;;;;;;;;4800016;29;20497;-78